createdAt,value
2018-06-16T00:00:34.683Z,100.00
2018-06-16T00:02:02.204Z,100.00
2018-06-16T00:03:29.621Z,100.00
2018-06-16T00:05:00.958Z,100.00
2018-06-16T00:06:24.269Z,100.00
2018-06-16T00:07:51.984Z,100.00
2018-06-16T00:09:19.422Z,100.00
2018-06-16T00:10:47.047Z,100.00
2018-06-16T00:12:18.544Z,100.00
2018-06-16T00:13:45.937Z,100.00
2018-06-16T00:15:13.482Z,100.00
2018-06-16T00:16:36.758Z,100.00
2018-06-16T00:18:08.259Z,100.00
2018-06-16T00:19:31.456Z,100.00
2018-06-16T00:20:58.705Z,100.00
2018-06-16T00:22:26.158Z,100.00
2018-06-16T00:23:57.596Z,100.00
2018-06-16T00:25:24.936Z,100.00
2018-06-16T00:26:52.350Z,100.00
2018-06-16T00:28:22.697Z,100.00
2018-06-16T00:29:42.966Z,100.00
2018-06-16T00:31:10.186Z,100.00
2018-06-16T00:32:41.576Z,100.00
2018-06-16T00:34:08.969Z,100.00
2018-06-16T00:35:32.348Z,100.00
2018-06-16T00:37:04.212Z,100.00
2018-06-16T00:38:27.602Z,100.00
2018-06-16T00:39:55.096Z,100.00
2018-06-16T00:41:26.400Z,100.00
2018-06-16T00:42:49.737Z,100.00
2018-06-16T00:44:17.357Z,100.00
2018-06-16T00:45:44.636Z,100.00
2018-06-16T00:47:16.093Z,100.00
2018-06-16T00:48:43.444Z,100.00
2018-06-16T00:50:06.696Z,100.00
2018-06-16T00:51:34.132Z,100.00
2018-06-16T00:53:05.433Z,100.00
2018-06-16T00:54:32.953Z,100.00
2018-06-16T00:56:00.367Z,100.00
2018-06-16T00:57:27.835Z,100.00
2018-06-16T00:58:50.976Z,100.00
2018-06-16T01:00:18.304Z,100.00
2018-06-16T01:01:45.770Z,100.00
2018-06-16T01:03:13.131Z,100.00
2018-06-16T01:04:40.485Z,100.00
2018-06-16T01:06:11.842Z,100.00
2018-06-16T01:07:35.101Z,100.00
2018-06-16T01:09:07.571Z,100.00
2018-06-16T01:10:33.980Z,100.00
2018-06-16T01:11:57.129Z,100.00
2018-06-16T01:13:24.484Z,100.00
2018-06-16T01:14:51.965Z,100.00
2018-06-16T01:16:19.283Z,100.00
2018-06-16T01:17:50.668Z,100.00
2018-06-16T01:19:14.089Z,100.00
2018-06-16T01:20:41.537Z,100.00
2018-06-16T01:22:08.876Z,100.00
2018-06-16T01:23:36.176Z,100.00
2018-06-16T01:25:07.552Z,100.00
2018-06-16T01:26:30.839Z,100.00
2018-06-16T01:28:02.415Z,100.00
2018-06-16T01:29:29.793Z,100.00
2018-06-16T01:30:53.116Z,100.00
2018-06-16T01:32:20.424Z,100.00
2018-06-16T01:33:47.843Z,100.00
2018-06-16T01:35:15.162Z,100.00
2018-06-16T01:36:42.716Z,100.00
2018-06-16T01:38:13.966Z,100.00
2018-06-16T01:39:41.213Z,100.00
2018-06-16T01:41:04.567Z,100.00
2018-06-16T01:42:36.069Z,100.00
2018-06-16T01:44:03.264Z,100.00
2018-06-16T01:45:26.761Z,100.00
2018-06-16T01:46:58.322Z,100.00
2018-06-16T01:48:25.827Z,100.00
2018-06-16T01:49:53.196Z,100.00
2018-06-16T01:51:16.657Z,100.00
2018-06-16T01:52:48.092Z,100.00
2018-06-16T01:54:11.484Z,100.00
2018-06-16T01:55:42.894Z,100.00
2018-06-16T01:57:10.192Z,100.00
2018-06-16T01:58:33.416Z,100.00
2018-06-16T02:00:04.780Z,100.00
2018-06-16T02:01:28.069Z,100.00
2018-06-16T02:02:55.332Z,100.00
2018-06-16T02:04:22.702Z,100.00
2018-06-16T02:05:54.090Z,100.00
2018-06-16T02:07:17.435Z,100.00
2018-06-16T02:08:44.892Z,100.00
2018-06-16T02:10:12.147Z,100.00
2018-06-16T02:11:39.572Z,100.00
2018-06-16T02:13:06.717Z,100.00
2018-06-16T02:14:38.085Z,100.00
2018-06-16T02:16:05.469Z,100.00
2018-06-16T02:17:28.741Z,100.00
2018-06-16T02:18:56.006Z,100.00
2018-06-16T02:20:23.477Z,100.00
2018-06-16T02:21:50.696Z,100.00
2018-06-16T02:23:22.237Z,100.00
2018-06-16T02:24:45.295Z,100.00
2018-06-16T02:26:12.750Z,100.00
2018-06-16T02:27:39.890Z,100.00
2018-06-16T02:29:11.483Z,100.00
2018-06-16T02:30:34.639Z,100.00
2018-06-16T02:32:02.089Z,100.00
2018-06-16T02:33:29.674Z,100.00
2018-06-16T02:34:57.084Z,100.00
2018-06-16T02:36:28.458Z,100.00
2018-06-16T02:37:51.748Z,100.00
2018-06-16T02:39:19.121Z,100.00
2018-06-16T02:40:46.550Z,100.00
2018-06-16T02:42:14.020Z,100.00
2018-06-16T02:43:41.327Z,100.00
2018-06-16T02:45:08.935Z,100.00
2018-06-16T02:46:36.254Z,100.00
2018-06-16T02:48:07.455Z,100.00
2018-06-16T02:49:30.755Z,100.00
2018-06-16T02:51:02.165Z,100.00
2018-06-16T02:52:25.549Z,100.00
2018-06-16T02:53:52.749Z,100.00
2018-06-16T02:55:20.355Z,100.00
2018-06-16T02:56:47.514Z,100.00
2018-06-16T02:58:18.920Z,100.00
2018-06-16T02:59:42.286Z,100.00
2018-06-16T03:01:09.831Z,100.00
2018-06-16T03:02:41.160Z,100.00
2018-06-16T03:04:04.608Z,100.00
2018-06-16T03:05:35.878Z,100.00
2018-06-16T03:06:59.162Z,100.00
2018-06-16T03:08:26.568Z,100.00
2018-06-16T03:09:57.945Z,100.00
2018-06-16T03:11:25.362Z,100.00
2018-06-16T03:12:52.878Z,100.00
2018-06-16T03:14:20.201Z,100.00
2018-06-16T03:15:43.450Z,100.00
2018-06-16T03:17:14.847Z,100.00
2018-06-16T03:18:42.229Z,100.00
2018-06-16T03:20:05.380Z,100.00
2018-06-16T03:21:32.864Z,100.00
2018-06-16T03:23:00.052Z,100.00
2018-06-16T03:24:27.587Z,100.00
2018-06-16T03:25:54.887Z,100.00
2018-06-16T03:27:22.340Z,100.00
2018-06-16T03:28:53.867Z,100.00
2018-06-16T03:30:17.192Z,100.00
2018-06-16T03:31:44.497Z,100.00
2018-06-16T03:33:15.886Z,100.00
2018-06-16T03:34:39.193Z,100.00
2018-06-16T03:36:06.625Z,100.00
2018-06-16T03:37:37.920Z,100.00
2018-06-16T03:39:05.143Z,100.00
2018-06-16T03:40:28.453Z,100.00
2018-06-16T03:41:59.766Z,100.00
2018-06-16T03:43:23.227Z,100.00
2018-06-16T03:44:50.578Z,100.00
2018-06-16T03:46:17.946Z,100.00
2018-06-16T03:47:49.451Z,100.00
2018-06-16T03:49:16.782Z,100.00
2018-06-16T03:50:40.127Z,100.00
2018-06-16T03:52:11.392Z,100.00
2018-06-16T03:53:34.653Z,100.00
2018-06-16T03:55:06.169Z,100.00
2018-06-16T03:56:29.447Z,100.00
2018-06-16T03:57:56.880Z,100.00
2018-06-16T03:59:23.999Z,100.00
2018-06-16T04:00:55.270Z,100.00
2018-06-16T04:02:18.784Z,100.00
2018-06-16T04:03:45.864Z,100.00
2018-06-16T04:05:17.437Z,100.00
2018-06-16T04:06:40.721Z,100.00
2018-06-16T04:08:07.990Z,100.00
2018-06-16T04:09:35.287Z,100.00
2018-06-16T04:11:02.459Z,100.00
2018-06-16T04:12:34.038Z,100.00
2018-06-16T04:14:01.479Z,100.00
2018-06-16T04:15:24.819Z,100.00
2018-06-16T04:16:52.246Z,100.00
2018-06-16T04:18:19.618Z,100.00
2018-06-16T04:19:46.843Z,100.00
2018-06-16T04:21:18.267Z,100.00
2018-06-16T04:22:41.710Z,100.00
2018-06-16T04:24:09.130Z,100.00
2018-06-16T04:25:40.585Z,100.00
2018-06-16T04:27:03.837Z,100.00
2018-06-16T04:28:31.265Z,100.00
2018-06-16T04:29:58.871Z,100.00
2018-06-16T04:31:26.195Z,100.00
2018-06-16T04:32:53.501Z,100.00
2018-06-16T04:34:21.010Z,100.00
2018-06-16T04:35:48.402Z,100.00
2018-06-16T04:37:15.837Z,100.00
2018-06-16T04:38:47.148Z,100.00
2018-06-16T04:40:14.635Z,100.00
2018-06-16T04:41:37.658Z,100.00
2018-06-16T04:43:04.918Z,100.00
2018-06-16T04:44:36.466Z,100.00
2018-06-16T04:46:03.666Z,100.00
2018-06-16T04:47:27.043Z,100.00
2018-06-16T04:48:58.361Z,100.00
2018-06-16T04:50:25.677Z,100.00
2018-06-16T04:51:49.087Z,100.00
2018-06-16T04:53:20.424Z,100.00
2018-06-16T04:54:43.896Z,100.00
2018-06-16T04:56:15.262Z,100.00
2018-06-16T04:57:42.566Z,100.00
2018-06-16T04:59:09.804Z,100.00
2018-06-16T05:00:33.291Z,100.00
2018-06-16T05:02:00.426Z,100.00
2018-06-16T05:03:27.880Z,100.00
2018-06-16T05:04:55.231Z,100.00
2018-06-16T05:06:22.773Z,100.00
2018-06-16T05:07:50.127Z,100.00
2018-06-16T05:09:21.662Z,100.00
2018-06-16T05:10:44.966Z,100.00
2018-06-16T05:12:16.263Z,100.00
2018-06-16T05:13:43.792Z,100.00
2018-06-16T05:15:11.029Z,100.00
2018-06-16T05:16:34.278Z,100.00
2018-06-16T05:18:01.809Z,100.00
2018-06-16T05:19:29.365Z,100.00
2018-06-16T05:20:56.849Z,100.00
2018-06-16T05:22:24.463Z,100.00
2018-06-16T05:23:55.931Z,100.00
2018-06-16T05:25:19.356Z,100.00
2018-06-16T05:26:46.890Z,100.00
2018-06-16T05:28:14.353Z,100.00
2018-06-16T05:29:41.757Z,100.00
2018-06-16T05:31:13.043Z,100.00
2018-06-16T05:32:40.407Z,100.00
2018-06-16T05:34:03.795Z,100.00
2018-06-16T05:35:31.293Z,100.00
2018-06-16T05:36:58.566Z,100.00
2018-06-16T05:38:30.292Z,100.00
2018-06-16T05:39:53.881Z,100.00
2018-06-16T05:41:25.525Z,100.00
2018-06-16T05:42:49.200Z,100.00
2018-06-16T05:44:16.746Z,100.00
2018-06-16T05:45:44.259Z,100.00
2018-06-16T05:47:11.858Z,100.00
2018-06-16T05:48:43.075Z,100.00
2018-06-16T05:50:06.699Z,100.00
2018-06-16T05:51:34.223Z,100.00
2018-06-16T05:53:05.842Z,100.00
2018-06-16T05:54:29.369Z,100.00
2018-06-16T05:55:56.917Z,100.00
2018-06-16T05:57:24.378Z,98.55
2018-06-16T05:58:52.092Z,99.39
2018-06-16T06:00:23.831Z,98.85
2018-06-16T06:01:47.161Z,98.01
2018-06-16T06:03:18.797Z,100.00
2018-06-16T06:04:46.300Z,100.00
2018-06-16T06:06:09.796Z,100.00
2018-06-16T06:07:41.097Z,98.95
2018-06-16T06:09:04.673Z,98.64
2018-06-16T06:10:37.449Z,98.66
2018-06-16T06:11:59.780Z,100.00
2018-06-16T06:13:27.314Z,100.00
2018-06-16T06:14:58.855Z,100.00
2018-06-16T06:16:26.324Z,100.00
2018-06-16T06:17:53.804Z,100.00
2018-06-16T06:19:17.507Z,100.00
2018-06-16T06:20:44.795Z,100.00
2018-06-16T06:22:12.334Z,100.00
2018-06-16T06:23:39.699Z,100.00
2018-06-16T06:25:07.367Z,100.00
2018-06-16T06:26:38.843Z,99.42
2018-06-16T06:28:02.457Z,100.00
2018-06-16T06:29:30.101Z,99.24
2018-06-16T06:30:57.670Z,96.89
2018-06-16T06:32:25.272Z,95.19
2018-06-16T06:33:52.820Z,93.87
2018-06-16T06:35:20.543Z,94.86
2018-06-16T06:36:48.083Z,95.61
2018-06-16T06:38:15.875Z,95.59
2018-06-16T06:39:43.444Z,91.17
2018-06-16T06:41:11.083Z,93.22
2018-06-16T06:42:42.849Z,91.41
2018-06-16T06:44:06.163Z,90.72
2018-06-16T06:45:33.814Z,92.96
2018-06-16T06:47:05.409Z,88.37
2018-06-16T06:48:29.109Z,85.93
2018-06-16T06:49:56.663Z,85.03
2018-06-16T06:51:28.390Z,85.46
2018-06-16T06:52:56.091Z,81.01
2018-06-16T06:54:19.752Z,83.93
2018-06-16T06:55:47.304Z,84.91
2018-06-16T06:57:14.884Z,83.36
2018-06-16T06:58:42.405Z,84.43
2018-06-16T07:00:10.012Z,85.71
2018-06-16T07:01:37.442Z,86.34
2018-06-16T07:03:09.049Z,86.80
2018-06-16T07:04:32.676Z,90.95
2018-06-16T07:06:00.029Z,88.96
2018-06-16T07:07:27.521Z,89.81
2018-06-16T07:08:55.181Z,87.81
2018-06-16T07:10:22.796Z,87.85
2018-06-16T07:11:50.002Z,87.43
2018-06-16T07:13:17.580Z,88.26
2018-06-16T07:14:45.230Z,87.71
2018-06-16T07:16:12.457Z,87.66
2018-06-16T07:17:39.970Z,89.11
2018-06-16T07:19:07.425Z,85.13
2018-06-16T07:20:35.113Z,84.80
2018-06-16T07:22:02.421Z,82.55
2018-06-16T07:23:30.042Z,82.88
2018-06-16T07:24:57.546Z,85.03
2018-06-16T07:26:25.218Z,84.77
2018-06-16T07:27:52.693Z,84.10
2018-06-16T07:29:24.435Z,83.73
2018-06-16T07:30:51.783Z,84.77
2018-06-16T07:32:15.247Z,85.71
2018-06-16T07:33:46.631Z,87.71
2018-06-16T07:35:14.069Z,88.05
2018-06-16T07:36:37.516Z,88.08
2018-06-16T07:38:05.143Z,87.08
2018-06-16T07:39:32.671Z,87.47
2018-06-16T07:40:59.883Z,88.91
2018-06-16T07:42:31.466Z,87.35
2018-06-16T07:43:58.629Z,85.96
2018-06-16T07:45:22.071Z,86.05
2018-06-16T07:46:53.648Z,87.82
2018-06-16T07:48:17.230Z,88.15
2018-06-16T07:49:44.816Z,88.31
2018-06-16T07:51:12.306Z,86.33
2018-06-16T07:52:39.731Z,86.20
2018-06-16T07:54:07.350Z,88.37
2018-06-16T07:55:38.995Z,87.95
2018-06-16T07:57:02.613Z,86.53
2018-06-16T07:58:34.210Z,85.44
2018-06-16T07:59:57.616Z,86.83
2018-06-16T08:01:25.207Z,84.92
2018-06-16T08:02:52.933Z,86.82
2018-06-16T08:04:20.314Z,85.37
2018-06-16T08:05:51.922Z,86.30
2018-06-16T08:07:15.553Z,84.97
2018-06-16T08:08:42.954Z,84.96
2018-06-16T08:10:10.573Z,85.47
2018-06-16T08:11:38.028Z,83.33
2018-06-16T08:13:05.542Z,83.30
2018-06-16T08:14:33.025Z,85.44
2018-06-16T08:16:00.567Z,83.95
2018-06-16T08:17:28.137Z,83.31
2018-06-16T08:18:55.759Z,82.04
2018-06-16T08:20:23.104Z,80.30
2018-06-16T08:21:50.622Z,81.91
2018-06-16T08:23:18.255Z,83.84
2018-06-16T08:24:49.676Z,81.33
2018-06-16T08:26:13.305Z,81.82
2018-06-16T08:27:44.915Z,81.81
2018-06-16T08:29:08.427Z,81.57
2018-06-16T08:30:39.903Z,79.50
2018-06-16T08:32:07.447Z,80.65
2018-06-16T08:33:31.025Z,79.39
2018-06-16T08:34:58.570Z,78.92
2018-06-16T08:36:30.205Z,78.36
2018-06-16T08:37:53.770Z,76.75
2018-06-16T08:39:21.357Z,75.09
2018-06-16T08:40:48.878Z,75.08
2018-06-16T08:42:16.518Z,73.66
2018-06-16T08:43:43.700Z,73.68
2018-06-16T08:45:11.265Z,76.17
2018-06-16T08:46:38.721Z,76.10
2018-06-16T08:48:06.114Z,75.07
2018-06-16T08:49:37.599Z,75.16
2018-06-16T08:51:05.328Z,74.03
2018-06-16T08:52:28.963Z,74.78
2018-06-16T08:54:00.493Z,74.12
2018-06-16T08:55:24.084Z,73.77
2018-06-16T08:56:51.484Z,72.52
2018-06-16T08:58:19.220Z,74.15
2018-06-16T08:59:50.813Z,73.75
2018-06-16T09:01:14.417Z,74.00
2018-06-16T09:02:42.058Z,73.87
2018-06-16T09:04:09.581Z,73.84
2018-06-16T09:05:41.062Z,75.58
2018-06-16T09:07:04.679Z,75.47
2018-06-16T09:08:36.272Z,74.93
2018-06-16T09:09:59.762Z,72.77
2018-06-16T09:11:27.591Z,72.19
2018-06-16T09:12:59.018Z,72.70
2018-06-16T09:14:22.670Z,73.06
2018-06-16T09:15:50.172Z,75.04
2018-06-16T09:17:17.477Z,72.54
2018-06-16T09:18:45.089Z,70.62
2018-06-16T09:20:16.695Z,71.36
2018-06-16T09:21:44.211Z,70.00
2018-06-16T09:23:07.673Z,72.63
2018-06-16T09:24:34.968Z,70.72
2018-06-16T09:26:02.673Z,73.31
2018-06-16T09:27:34.272Z,72.86
2018-06-16T09:29:01.784Z,71.85
2018-06-16T09:30:25.414Z,71.65
2018-06-16T09:31:53.104Z,69.74
2018-06-16T09:33:20.663Z,69.30
2018-06-16T09:34:48.397Z,67.60
2018-06-16T09:36:15.955Z,67.96
2018-06-16T09:37:47.575Z,67.33
2018-06-16T09:39:15.314Z,67.25
2018-06-16T09:40:38.807Z,68.70
2018-06-16T09:42:06.361Z,67.81
2018-06-16T09:43:34.050Z,68.95
2018-06-16T09:45:05.655Z,65.21
2018-06-16T09:46:29.231Z,64.86
2018-06-16T09:47:56.864Z,68.23
2018-06-16T09:49:24.360Z,65.22
2018-06-16T09:50:52.091Z,66.22
2018-06-16T09:52:19.705Z,61.66
2018-06-16T09:53:47.338Z,62.97
2018-06-16T09:55:14.980Z,63.94
2018-06-16T09:56:42.574Z,64.92
2018-06-16T09:58:10.010Z,64.58
2018-06-16T09:59:37.699Z,62.95
2018-06-16T10:01:05.262Z,63.71
2018-06-16T10:02:36.852Z,63.28
2018-06-16T10:04:04.453Z,64.67
2018-06-16T10:05:28.054Z,65.85
2018-06-16T10:06:55.709Z,64.79
2018-06-16T10:08:23.303Z,65.05
2018-06-16T10:09:54.978Z,63.83
2018-06-16T10:11:22.548Z,64.19
2018-06-16T10:12:50.244Z,65.19
2018-06-16T10:14:13.702Z,63.34
2018-06-16T10:15:41.366Z,62.17
2018-06-16T10:17:09.076Z,64.30
2018-06-16T10:18:36.586Z,61.17
2018-06-16T10:20:04.440Z,61.35
2018-06-16T10:21:32.027Z,61.74
2018-06-16T10:22:59.719Z,59.95
2018-06-16T10:24:27.320Z,63.65
2018-06-16T10:25:55.024Z,61.59
2018-06-16T10:27:22.724Z,58.48
2018-06-16T10:28:54.291Z,58.74
2018-06-16T10:30:21.903Z,57.60
2018-06-16T10:31:45.567Z,57.80
2018-06-16T10:33:13.217Z,58.91
2018-06-16T10:34:40.681Z,54.46
2018-06-16T10:36:08.127Z,55.43
2018-06-16T10:37:35.538Z,56.80
2018-06-16T10:39:03.237Z,55.71
2018-06-16T10:40:34.807Z,55.09
2018-06-16T10:42:02.399Z,56.10
2018-06-16T10:43:25.815Z,54.93
2018-06-16T10:44:57.569Z,54.65
2018-06-16T10:46:21.117Z,55.96
2018-06-16T10:47:48.623Z,57.99
2018-06-16T10:49:16.190Z,57.39
2018-06-16T10:50:47.970Z,58.29
2018-06-16T10:52:11.649Z,58.36
2018-06-16T10:53:43.231Z,58.07
2018-06-16T10:55:10.802Z,58.31
2018-06-16T10:56:34.403Z,59.29
2018-06-16T10:58:05.942Z,57.78
2018-06-16T10:59:29.587Z,56.96
2018-06-16T11:00:57.380Z,56.73
2018-06-16T11:02:25.037Z,55.80
2018-06-16T11:03:56.537Z,56.94
2018-06-16T11:05:24.076Z,56.03
2018-06-16T11:06:47.740Z,55.56
2018-06-16T11:08:19.355Z,56.98
2018-06-16T11:09:46.984Z,56.39
2018-06-16T11:11:10.558Z,56.38
2018-06-16T11:12:42.142Z,55.77
2018-06-16T11:14:05.528Z,54.89
2018-06-16T11:15:40.127Z,53.22
2018-06-16T11:17:00.636Z,52.07
2018-06-16T11:18:28.270Z,52.29
2018-06-16T11:19:59.665Z,53.28
2018-06-16T11:21:27.381Z,53.64
2018-06-16T11:22:55.022Z,54.58
2018-06-16T11:24:18.716Z,54.49
2018-06-16T11:25:50.354Z,54.52
2018-06-16T11:27:14.045Z,54.42
2018-06-16T11:28:41.554Z,56.22
2018-06-16T11:30:13.239Z,55.49
2018-06-16T11:31:36.889Z,55.94
2018-06-16T11:33:08.475Z,54.66
2018-06-16T11:34:36.136Z,53.67
2018-06-16T11:35:59.882Z,54.83
2018-06-16T11:37:27.473Z,54.78
2018-06-16T11:38:55.107Z,54.38
2018-06-16T11:40:22.780Z,53.78
2018-06-16T11:41:54.504Z,54.33
2018-06-16T11:43:22.163Z,54.46
2018-06-16T11:44:45.820Z,55.39
2018-06-16T11:46:13.481Z,56.38
2018-06-16T11:47:41.150Z,55.97
2018-06-16T11:49:12.444Z,54.65
2018-06-16T11:50:35.933Z,54.62
2018-06-16T11:52:03.431Z,55.54
2018-06-16T11:53:31.026Z,55.16
2018-06-16T11:55:02.887Z,55.72
2018-06-16T11:56:30.475Z,53.39
2018-06-16T11:57:54.205Z,52.34
2018-06-16T11:59:25.429Z,52.91
2018-06-16T12:00:49.098Z,51.76
2018-06-16T12:02:16.660Z,52.06
2018-06-16T12:03:44.151Z,51.66
2018-06-16T12:05:11.861Z,51.96
2018-06-16T12:06:39.479Z,51.63
2018-06-16T12:08:07.084Z,51.62
2018-06-16T12:09:34.617Z,51.48
2018-06-16T12:11:02.445Z,51.27
2018-06-16T12:12:33.997Z,50.06
2018-06-16T12:13:57.501Z,50.23
2018-06-16T12:15:25.339Z,51.01
2018-06-16T12:16:52.690Z,51.70
2018-06-16T12:18:19.953Z,52.08
2018-06-16T12:19:51.680Z,53.26
2018-06-16T12:21:15.209Z,53.47
2018-06-16T12:22:42.255Z,53.86
2018-06-16T12:24:09.770Z,54.14
2018-06-16T12:25:37.377Z,55.26
2018-06-16T12:27:08.855Z,54.55
2018-06-16T12:28:32.502Z,53.76
2018-06-16T12:30:00.091Z,55.47
2018-06-16T12:31:27.558Z,55.31
2018-06-16T12:32:59.323Z,54.59
2018-06-16T12:34:22.766Z,54.59
2018-06-16T12:35:54.412Z,53.87
2018-06-16T12:37:18.065Z,54.51
2018-06-16T12:38:45.427Z,54.11
2018-06-16T12:40:13.233Z,53.47
2018-06-16T12:41:40.939Z,54.52
2018-06-16T12:43:08.391Z,54.70
2018-06-16T12:44:39.951Z,53.16
2018-06-16T12:46:07.631Z,52.78
2018-06-16T12:47:31.101Z,51.33
2018-06-16T12:48:58.709Z,51.55
2018-06-16T12:50:30.529Z,51.17
2018-06-16T12:51:54.414Z,51.15
2018-06-16T12:53:22.158Z,49.38
2018-06-16T12:54:49.487Z,49.67
2018-06-16T12:56:17.167Z,49.85
2018-06-16T12:57:44.770Z,49.50
2018-06-16T12:59:16.371Z,50.36
2018-06-16T13:00:39.859Z,50.07
2018-06-16T13:02:07.509Z,50.03
2018-06-16T13:03:35.061Z,51.06
2018-06-16T13:05:06.313Z,50.85
2018-06-16T13:06:33.797Z,50.10
2018-06-16T13:08:01.268Z,49.53
2018-06-16T13:09:24.950Z,49.89
2018-06-16T13:10:52.581Z,50.27
2018-06-16T13:12:20.139Z,50.82
2018-06-16T13:13:47.783Z,51.78
2018-06-16T13:15:15.382Z,52.38
2018-06-16T13:16:43.023Z,52.86
2018-06-16T13:18:10.618Z,52.22
2018-06-16T13:19:38.337Z,52.38
2018-06-16T13:21:09.666Z,52.93
2018-06-16T13:22:37.385Z,52.97
2018-06-16T13:24:00.842Z,52.68
2018-06-16T13:25:32.483Z,53.18
2018-06-16T13:27:00.010Z,54.88
2018-06-16T13:28:23.713Z,54.12
2018-06-16T13:29:55.305Z,55.12
2018-06-16T13:31:19.008Z,55.02
2018-06-16T13:32:46.608Z,55.29
2018-06-16T13:34:18.345Z,54.24
2018-06-16T13:35:41.813Z,55.10
2018-06-16T13:37:09.479Z,55.40
2018-06-16T13:38:37.064Z,54.88
2018-06-16T13:40:08.858Z,56.47
2018-06-16T13:41:32.620Z,56.81
2018-06-16T13:43:04.412Z,54.12
2018-06-16T13:44:28.017Z,54.77
2018-06-16T13:45:59.429Z,54.37
2018-06-16T13:47:26.944Z,54.12
2018-06-16T13:48:50.645Z,53.70
2018-06-16T13:50:18.363Z,54.65
2018-06-16T13:51:46.114Z,55.50
2018-06-16T13:53:13.620Z,55.63
2018-06-16T13:54:45.182Z,55.71
2018-06-16T13:56:12.819Z,55.96
2018-06-16T13:57:40.328Z,56.51
2018-06-16T13:59:07.947Z,56.20
2018-06-16T14:00:31.497Z,55.42
2018-06-16T14:01:59.117Z,55.93
2018-06-16T14:03:26.840Z,55.61
2018-06-16T14:04:54.432Z,55.25
2018-06-16T14:06:25.984Z,55.01
2018-06-16T14:07:49.683Z,54.91
2018-06-16T14:09:17.232Z,54.75
2018-06-16T14:10:44.924Z,54.94
2018-06-16T14:12:12.527Z,54.65
2018-06-16T14:13:44.092Z,54.23
2018-06-16T14:15:07.688Z,55.32
2018-06-16T14:16:35.354Z,55.61
2018-06-16T14:18:03.019Z,55.33
2018-06-16T14:19:30.601Z,55.28
2018-06-16T14:20:58.146Z,56.41
2018-06-16T14:22:25.809Z,55.69
2018-06-16T14:23:57.443Z,54.78
2018-06-16T14:25:24.997Z,55.88
2018-06-16T14:26:48.698Z,56.33
2018-06-16T14:28:20.314Z,56.00
2018-06-16T14:29:43.964Z,55.18
2018-06-16T14:31:15.657Z,55.48
2018-06-16T14:32:39.200Z,56.59
2018-06-16T14:34:06.789Z,56.72
2018-06-16T14:35:34.322Z,55.89
2018-06-16T14:37:01.939Z,56.25
2018-06-16T14:38:33.613Z,57.62
2018-06-16T14:40:01.252Z,57.66
2018-06-16T14:41:24.911Z,58.55
2018-06-16T14:42:56.511Z,56.76
2018-06-16T14:44:24.093Z,55.11
2018-06-16T14:45:47.677Z,55.45
2018-06-16T14:47:23.229Z,55.97
2018-06-16T14:48:42.928Z,53.41
2018-06-16T14:50:14.503Z,54.90
2018-06-16T14:51:38.082Z,54.33
2018-06-16T14:53:05.331Z,55.81
2018-06-16T14:54:33.066Z,55.23
2018-06-16T14:56:00.858Z,55.40
2018-06-16T14:57:28.210Z,54.89
2018-06-16T14:58:59.779Z,54.73
2018-06-16T15:00:23.410Z,55.93
2018-06-16T15:01:54.981Z,56.48
2018-06-16T15:03:18.563Z,56.96
2018-06-16T15:04:46.330Z,56.67
2018-06-16T15:06:17.786Z,57.74
2018-06-16T15:07:41.435Z,57.32
2018-06-16T15:09:13.078Z,57.37
2018-06-16T15:10:36.593Z,57.22
2018-06-16T15:12:04.282Z,57.00
2018-06-16T15:13:31.743Z,57.74
2018-06-16T15:14:59.335Z,57.80
2018-06-16T15:16:26.870Z,58.70
2018-06-16T15:17:54.385Z,57.63
2018-06-16T15:19:22.326Z,56.14
2018-06-16T15:20:49.922Z,57.16
2018-06-16T15:22:17.564Z,58.12
2018-06-16T15:23:45.383Z,56.05
2018-06-16T15:25:13.115Z,53.38
2018-06-16T15:26:40.639Z,53.04
2018-06-16T15:28:08.094Z,53.41
2018-06-16T15:29:39.674Z,53.75
2018-06-16T15:31:07.135Z,51.80
2018-06-16T15:32:30.888Z,51.72
2018-06-16T15:33:58.465Z,51.46
2018-06-16T15:35:26.115Z,52.25
2018-06-16T15:36:53.770Z,52.89
2018-06-16T15:38:25.408Z,52.93
2018-06-16T15:39:48.991Z,51.87
2018-06-16T15:41:20.335Z,53.31
2018-06-16T15:42:44.075Z,53.47
2018-06-16T15:44:11.689Z,53.35
2018-06-16T15:45:43.265Z,54.15
2018-06-16T15:47:10.842Z,53.15
2018-06-16T15:48:38.510Z,52.77
2018-06-16T15:50:02.296Z,53.88
2018-06-16T15:51:30.006Z,53.78
2018-06-16T15:52:57.514Z,53.27
2018-06-16T15:54:25.155Z,53.31
2018-06-16T15:55:56.463Z,52.46
2018-06-16T15:57:20.160Z,52.96
2018-06-16T15:58:47.836Z,53.47
2018-06-16T16:00:15.378Z,53.04
2018-06-16T16:01:42.991Z,53.00
2018-06-16T16:03:10.665Z,53.91
2018-06-16T16:04:42.268Z,54.20
2018-06-16T16:06:09.710Z,54.48
2018-06-16T16:07:33.282Z,54.08
2018-06-16T16:09:05.061Z,53.24
2018-06-16T16:10:28.805Z,52.92
2018-06-16T16:11:56.181Z,53.04
2018-06-16T16:13:27.853Z,53.45
2018-06-16T16:14:51.427Z,53.81
2018-06-16T16:16:19.142Z,53.98
2018-06-16T16:17:46.703Z,54.26
2018-06-16T16:19:14.377Z,53.84
2018-06-16T16:20:41.804Z,53.11
2018-06-16T16:22:09.328Z,53.35
2018-06-16T16:23:37.017Z,53.35
2018-06-16T16:25:04.744Z,53.78
2018-06-16T16:26:32.369Z,53.31
2018-06-16T16:28:00.033Z,54.08
2018-06-16T16:29:27.793Z,53.56
2018-06-16T16:30:55.408Z,53.60
2018-06-16T16:32:22.591Z,54.50
2018-06-16T16:33:50.162Z,54.63
2018-06-16T16:35:21.634Z,54.13
2018-06-16T16:36:45.366Z,54.02
2018-06-16T16:38:16.940Z,54.09
2018-06-16T16:39:40.594Z,54.62
2018-06-16T16:41:08.210Z,55.14
2018-06-16T16:42:35.647Z,55.48
2018-06-16T16:44:03.411Z,54.87
2018-06-16T16:45:34.990Z,54.90
2018-06-16T16:46:58.592Z,55.64
2018-06-16T16:48:30.391Z,56.77
2018-06-16T16:49:54.056Z,57.46
2018-06-16T16:51:21.581Z,58.47
2018-06-16T16:52:53.148Z,58.54
2018-06-16T16:54:20.708Z,58.63
2018-06-16T16:55:44.178Z,59.67
2018-06-16T16:57:11.860Z,58.36
2018-06-16T16:58:43.281Z,56.31
2018-06-16T17:00:10.677Z,57.34
2018-06-16T17:01:34.356Z,58.37
2018-06-16T17:03:02.093Z,59.29
2018-06-16T17:04:29.795Z,59.39
2018-06-16T17:05:57.521Z,60.21
2018-06-16T17:07:24.882Z,60.86
2018-06-16T17:08:52.464Z,61.35
2018-06-16T17:10:24.132Z,60.65
2018-06-16T17:11:47.714Z,60.15
2018-06-16T17:13:15.218Z,60.60
2018-06-16T17:14:42.786Z,59.90
2018-06-16T17:16:14.389Z,58.92
2018-06-16T17:17:37.985Z,59.48
2018-06-16T17:19:05.579Z,60.33
2018-06-16T17:20:33.160Z,60.97
2018-06-16T17:22:00.804Z,61.17
2018-06-16T17:23:28.480Z,61.16
2018-06-16T17:24:56.111Z,61.19
2018-06-16T17:26:23.666Z,62.25
2018-06-16T17:27:51.359Z,61.12
2018-06-16T17:29:23.009Z,62.50
2018-06-16T17:30:50.310Z,62.28
2018-06-16T17:32:17.940Z,62.67
2018-06-16T17:33:45.516Z,62.23
2018-06-16T17:35:08.961Z,62.40
2018-06-16T17:36:36.508Z,62.75
2018-06-16T17:38:08.198Z,63.17
2018-06-16T17:39:31.626Z,61.65
2018-06-16T17:40:59.143Z,61.91
2018-06-16T17:42:26.884Z,61.48
2018-06-16T17:43:54.265Z,61.98
2018-06-16T17:45:25.923Z,62.32
2018-06-16T17:46:49.598Z,62.96
2018-06-16T17:48:21.306Z,63.01
2018-06-16T17:49:44.785Z,63.36
2018-06-16T17:51:12.328Z,63.75
2018-06-16T17:52:43.841Z,63.58
2018-06-16T17:54:07.272Z,64.13
2018-06-16T17:55:35.001Z,64.39
2018-06-16T17:57:02.603Z,64.65
2018-06-16T17:58:34.159Z,64.91
2018-06-16T18:00:01.664Z,65.21
2018-06-16T18:01:25.281Z,65.54
2018-06-16T18:02:52.949Z,66.89
2018-06-16T18:04:20.199Z,67.17
2018-06-16T18:05:51.781Z,65.67
2018-06-16T18:07:15.150Z,67.94
2018-06-16T18:08:42.683Z,68.45
2018-06-16T18:10:10.177Z,69.83
2018-06-16T18:11:37.622Z,68.26
2018-06-16T18:13:05.253Z,69.39
2018-06-16T18:14:32.897Z,68.50
2018-06-16T18:16:00.509Z,71.79
2018-06-16T18:17:28.144Z,72.90
2018-06-16T18:18:55.759Z,73.26
2018-06-16T18:20:27.406Z,74.16
2018-06-16T18:21:50.983Z,70.51
2018-06-16T18:23:18.495Z,70.21
2018-06-16T18:24:46.140Z,67.93
2018-06-16T18:26:13.887Z,69.46
2018-06-16T18:27:41.545Z,66.59
2018-06-16T18:29:13.119Z,67.62
2018-06-16T18:30:40.620Z,78.99
2018-06-16T18:32:04.236Z,73.06
2018-06-16T18:33:35.822Z,80.97
2018-06-16T18:34:59.385Z,78.36